createdAt,value
2023-05-07T00:00:21.333Z,6.63
2023-05-07T00:02:42.928Z,7.05
2023-05-07T00:05:04.913Z,7.45
2023-05-07T00:07:26.644Z,8.25
2023-05-07T00:09:48.054Z,8.00
2023-05-07T00:12:09.562Z,8.38
2023-05-07T00:14:32.025Z,8.63
2023-05-07T00:16:53.655Z,8.48
2023-05-07T00:19:15.374Z,9.60
2023-05-07T00:21:37.001Z,8.40
2023-05-07T00:23:58.430Z,8.75
2023-05-07T00:26:19.944Z,6.35
2023-05-07T00:28:41.852Z,5.78
2023-05-07T00:31:03.337Z,6.30
2023-05-07T00:33:24.779Z,4.80
2023-05-07T00:35:46.294Z,5.15
2023-05-07T00:38:08.144Z,5.00
2023-05-07T00:40:29.697Z,5.20
2023-05-07T00:42:51.134Z,5.57
2023-05-07T00:45:13.007Z,6.07
2023-05-07T00:47:34.642Z,6.00
2023-05-07T00:49:56.242Z,5.18
2023-05-07T00:52:19.025Z,6.15
2023-05-07T00:54:41.856Z,6.82
2023-05-07T00:57:04.818Z,9.67
2023-05-07T00:59:26.332Z,9.95
2023-05-07T01:01:47.996Z,9.98
2023-05-07T01:04:09.576Z,11.13
2023-05-07T01:06:33.369Z,11.57
2023-05-07T01:08:57.709Z,11.40
2023-05-07T01:11:21.336Z,10.82
2023-05-07T01:13:43.411Z,10.17
2023-05-07T01:16:05.397Z,10.70
2023-05-07T01:18:27.632Z,10.90
2023-05-07T01:20:49.252Z,12.15
2023-05-07T01:23:12.273Z,12.23
2023-05-07T01:25:34.091Z,13.37
2023-05-07T01:27:55.721Z,12.50
2023-05-07T01:30:19.680Z,12.73
2023-05-07T01:32:53.117Z,12.43
2023-05-07T01:35:21.359Z,11.80
2023-05-07T01:37:42.921Z,11.47
2023-05-07T01:40:05.786Z,11.82
2023-05-07T01:42:27.666Z,11.60
2023-05-07T01:44:49.180Z,11.38
2023-05-07T01:47:11.460Z,11.83
2023-05-07T01:49:32.989Z,12.13
2023-05-07T01:51:54.491Z,12.68
2023-05-07T01:54:16.453Z,14.50
2023-05-07T01:56:37.983Z,14.17
2023-05-07T01:58:59.505Z,14.20
2023-05-07T02:01:21.182Z,14.27
2023-05-07T02:03:43.409Z,14.48
2023-05-07T02:06:05.072Z,14.37
2023-05-07T02:08:26.533Z,14.35
2023-05-07T02:10:47.993Z,14.53
2023-05-07T02:13:09.535Z,14.63
2023-05-07T02:15:31.272Z,14.33
2023-05-07T02:18:01.144Z,14.40
2023-05-07T02:20:22.638Z,15.03
2023-05-07T02:22:44.061Z,15.50
2023-05-07T02:25:05.824Z,13.67
2023-05-07T02:27:27.275Z,12.87
2023-05-07T02:29:48.714Z,13.73
2023-05-07T02:32:10.298Z,12.73
2023-05-07T02:34:31.764Z,13.33
2023-05-07T02:36:53.222Z,12.57
2023-05-07T02:39:15.151Z,11.97
2023-05-07T02:41:36.716Z,13.40
2023-05-07T02:43:58.174Z,12.23
2023-05-07T02:46:19.697Z,13.20
2023-05-07T02:48:41.135Z,12.87
2023-05-07T02:51:03.539Z,13.80
2023-05-07T02:53:27.112Z,13.53
2023-05-07T02:55:48.580Z,15.07
2023-05-07T02:58:10.035Z,15.03
2023-05-07T03:00:31.553Z,14.30
2023-05-07T03:02:53.053Z,14.47
2023-05-07T03:05:15.420Z,13.63
2023-05-07T03:07:37.581Z,13.83
2023-05-07T03:09:59.070Z,11.70
2023-05-07T03:12:20.654Z,13.27
2023-05-07T03:14:42.088Z,12.80
2023-05-07T03:17:03.558Z,13.00
2023-05-07T03:19:25.134Z,12.93
2023-05-07T03:21:46.650Z,12.53
2023-05-07T03:24:08.236Z,12.70
2023-05-07T03:26:29.750Z,12.13
2023-05-07T03:28:51.223Z,12.90
2023-05-07T03:31:12.749Z,12.37
2023-05-07T03:33:35.997Z,12.23
2023-05-07T03:35:57.548Z,12.60
2023-05-07T03:38:18.979Z,11.37
2023-05-07T03:40:40.486Z,13.67
2023-05-07T03:43:02.041Z,12.70
2023-05-07T03:45:23.504Z,13.87
2023-05-07T03:47:45.169Z,13.23
2023-05-07T03:50:07.009Z,13.60
2023-05-07T03:52:28.447Z,14.50
2023-05-07T03:54:49.892Z,14.77
2023-05-07T03:57:11.378Z,14.03
2023-05-07T03:59:32.852Z,14.77
2023-05-07T04:01:54.347Z,14.60
2023-05-07T04:04:16.851Z,13.33
2023-05-07T04:06:38.505Z,12.57
2023-05-07T04:09:00.008Z,13.60
2023-05-07T04:11:21.547Z,12.67
2023-05-07T04:13:43.024Z,12.13
2023-05-07T04:16:06.051Z,12.50
2023-05-07T04:18:27.629Z,12.57
2023-05-07T04:20:50.609Z,12.53
2023-05-07T04:23:12.105Z,11.80
2023-05-07T04:25:34.129Z,12.60
2023-05-07T04:27:57.955Z,12.33
2023-05-07T04:30:19.790Z,11.87
2023-05-07T04:32:41.289Z,11.97
2023-05-07T04:35:02.960Z,11.97
2023-05-07T04:37:24.466Z,12.33
2023-05-07T04:39:45.896Z,12.50
2023-05-07T04:42:09.837Z,11.57
2023-05-07T04:44:32.169Z,11.82
2023-05-07T04:46:53.646Z,12.40
2023-05-07T04:49:15.091Z,12.97
2023-05-07T04:51:36.579Z,12.05
2023-05-07T04:53:57.977Z,11.90
2023-05-07T04:56:19.476Z,12.15
2023-05-07T04:58:40.968Z,11.50
2023-05-07T05:01:02.615Z,11.00
2023-05-07T05:03:24.176Z,11.80
2023-05-07T05:05:45.943Z,12.35
2023-05-07T05:08:07.600Z,11.82
2023-05-07T05:10:29.154Z,12.07
2023-05-07T05:12:50.770Z,12.65
2023-05-07T05:15:13.611Z,13.23
2023-05-07T05:17:36.843Z,12.57
2023-05-07T05:19:58.352Z,17.30
2023-05-07T05:22:19.818Z,17.63
2023-05-07T05:24:41.261Z,35.58
2023-05-07T05:27:03.122Z,44.33
2023-05-07T05:29:24.579Z,37.25
2023-05-07T05:31:46.066Z,15.88
2023-05-07T05:34:07.514Z,17.83
2023-05-07T05:36:29.017Z,15.35
2023-05-07T05:38:50.833Z,15.27
2023-05-07T05:41:12.350Z,13.27
2023-05-07T05:43:34.145Z,12.95
2023-05-07T05:45:57.064Z,13.18
2023-05-07T05:48:18.692Z,11.70
2023-05-07T05:50:40.379Z,12.98
2023-05-07T05:53:01.799Z,12.25
2023-05-07T05:55:23.373Z,12.05
2023-05-07T05:57:44.934Z,13.15
2023-05-07T06:00:07.472Z,12.98
2023-05-07T06:02:29.192Z,13.07
2023-05-07T06:04:51.105Z,13.65
2023-05-07T06:07:12.633Z,12.95
2023-05-07T06:09:34.082Z,12.93
2023-05-07T06:11:55.549Z,13.05
2023-05-07T06:14:17.085Z,13.30
2023-05-07T06:16:39.195Z,13.27
2023-05-07T06:19:00.774Z,13.18
2023-05-07T06:21:22.241Z,12.82
2023-05-07T06:23:43.763Z,12.77
2023-05-07T06:26:05.238Z,13.05
2023-05-07T06:28:26.748Z,12.45
2023-05-07T06:30:49.911Z,12.13
2023-05-07T06:33:11.779Z,12.38
2023-05-07T06:35:33.279Z,13.02
2023-05-07T06:37:54.735Z,12.77
2023-05-07T06:40:16.593Z,13.00
2023-05-07T06:42:38.750Z,13.63
2023-05-07T06:45:00.854Z,13.52
2023-05-07T06:47:22.377Z,12.48
2023-05-07T06:49:43.832Z,13.18
2023-05-07T06:52:05.370Z,13.38
2023-05-07T06:54:26.880Z,13.85
2023-05-07T06:56:48.401Z,12.77
2023-05-07T06:59:09.844Z,12.95
2023-05-07T07:01:31.380Z,13.57
2023-05-07T07:03:52.927Z,13.23
2023-05-07T07:06:14.462Z,16.17
2023-05-07T07:08:35.885Z,15.43
2023-05-07T07:10:57.344Z,13.52
2023-05-07T07:13:18.901Z,13.82
2023-05-07T07:15:41.173Z,21.40
2023-05-07T07:18:02.718Z,17.45
2023-05-07T07:20:24.297Z,16.60
2023-05-07T07:22:45.851Z,13.15
2023-05-07T07:25:07.863Z,11.75
2023-05-07T07:27:29.329Z,11.43
2023-05-07T07:29:50.770Z,11.23
2023-05-07T07:32:12.233Z,11.73
2023-05-07T07:34:33.742Z,10.63
2023-05-07T07:36:55.236Z,10.82
2023-05-07T07:39:16.682Z,10.95
2023-05-07T07:41:38.141Z,11.52
2023-05-07T07:43:59.557Z,12.55
2023-05-07T07:46:21.059Z,10.85
2023-05-07T07:48:42.523Z,10.55
2023-05-07T07:51:04.168Z,10.63
2023-05-07T07:53:26.289Z,10.43
2023-05-07T07:55:47.842Z,9.93
2023-05-07T07:58:09.361Z,10.07
2023-05-07T08:00:30.880Z,10.13
2023-05-07T08:02:52.463Z,9.52
2023-05-07T08:05:14.003Z,10.30
2023-05-07T08:07:35.465Z,10.35
2023-05-07T08:09:56.895Z,12.63
2023-05-07T08:12:18.409Z,9.27
2023-05-07T08:14:39.870Z,9.02
2023-05-07T08:17:01.994Z,8.90
2023-05-07T08:19:23.647Z,9.13
2023-05-07T08:21:45.298Z,8.77
2023-05-07T08:24:07.225Z,8.55
2023-05-07T08:26:28.698Z,8.20
2023-05-07T08:28:50.157Z,8.15
2023-05-07T08:31:11.842Z,8.60
2023-05-07T08:33:33.353Z,7.65
2023-05-07T08:35:54.846Z,7.43
2023-05-07T08:38:16.279Z,7.55
2023-05-07T08:40:39.944Z,8.15
2023-05-07T08:43:03.161Z,7.90
2023-05-07T08:45:25.382Z,8.07
2023-05-07T08:47:53.000Z,7.90
2023-05-07T08:50:14.634Z,7.75
2023-05-07T08:52:36.355Z,7.20
2023-05-07T08:54:57.835Z,7.13
2023-05-07T08:57:20.909Z,6.68
2023-05-07T08:59:43.091Z,7.15
2023-05-07T09:02:06.455Z,6.95
2023-05-07T09:04:29.486Z,6.68
2023-05-07T09:06:52.245Z,6.93
2023-05-07T09:09:18.462Z,7.63
2023-05-07T09:11:40.026Z,7.30
2023-05-07T09:14:05.200Z,7.68
2023-05-07T09:16:27.490Z,7.55
2023-05-07T09:18:52.981Z,7.28
2023-05-07T09:21:19.406Z,7.68
2023-05-07T09:23:41.005Z,7.57
2023-05-07T09:26:03.195Z,7.25
2023-05-07T09:28:24.631Z,8.35
2023-05-07T09:30:46.243Z,8.00
2023-05-07T09:33:07.747Z,7.38
2023-05-07T09:35:29.857Z,7.13
2023-05-07T09:37:51.579Z,7.00
2023-05-07T09:40:30.442Z,6.80
2023-05-07T09:42:52.026Z,7.35
2023-05-07T09:45:13.838Z,6.70
2023-05-07T09:47:40.675Z,7.35
2023-05-07T09:50:06.594Z,6.03
2023-05-07T09:52:34.270Z,6.80
2023-05-07T09:54:57.202Z,6.80
2023-05-07T09:57:21.504Z,6.40
2023-05-07T09:59:44.198Z,7.20
2023-05-07T10:02:07.060Z,6.60
2023-05-07T10:04:29.340Z,6.97
2023-05-07T10:06:51.078Z,6.85
2023-05-07T10:09:14.795Z,6.78
2023-05-07T10:11:36.817Z,6.35
2023-05-07T10:13:58.475Z,6.45
2023-05-07T10:16:20.570Z,6.10
2023-05-07T10:18:42.482Z,6.18
2023-05-07T10:21:17.015Z,6.13
2023-05-07T10:23:39.788Z,6.05
2023-05-07T10:26:05.141Z,6.05
2023-05-07T10:28:28.190Z,6.00
2023-05-07T10:31:03.485Z,5.68
2023-05-07T10:33:28.174Z,5.50
2023-05-07T10:35:50.097Z,6.70
2023-05-07T10:38:12.036Z,5.45
2023-05-07T10:40:34.143Z,5.88
2023-05-07T10:43:01.227Z,5.80
2023-05-07T10:45:23.664Z,5.80
2023-05-07T10:48:28.125Z,5.10
2023-05-07T10:51:20.947Z,5.15
2023-05-07T10:53:42.375Z,4.80
2023-05-07T10:56:26.114Z,4.90
2023-05-07T10:58:47.573Z,5.00
2023-05-07T11:01:09.121Z,5.50
2023-05-07T11:03:31.281Z,4.78
2023-05-07T11:06:15.537Z,5.03
2023-05-07T11:08:57.241Z,5.32
2023-05-07T11:11:18.833Z,4.90
2023-05-07T11:13:51.314Z,4.68
2023-05-07T11:16:28.227Z,4.63
2023-05-07T11:18:56.872Z,4.63
2023-05-07T11:21:47.623Z,4.53
2023-05-07T11:24:11.144Z,4.65
2023-05-07T11:26:46.998Z,5.00
2023-05-07T11:29:22.156Z,4.03
2023-05-07T11:31:44.789Z,4.80
2023-05-07T11:34:06.464Z,5.03
2023-05-07T11:36:33.313Z,4.38
2023-05-07T11:38:54.806Z,4.60
2023-05-07T11:41:17.525Z,4.45
2023-05-07T11:43:40.960Z,4.55
2023-05-07T11:46:13.418Z,4.47
2023-05-07T11:48:35.341Z,4.50
2023-05-07T11:50:59.973Z,4.40
2023-05-07T11:53:25.575Z,4.07
2023-05-07T11:55:47.614Z,3.92
2023-05-07T11:58:12.087Z,3.85
2023-05-07T12:00:33.611Z,4.25
2023-05-07T12:02:55.165Z,3.97
2023-05-07T12:05:17.599Z,3.97
2023-05-07T12:07:39.085Z,4.03
2023-05-07T12:10:00.775Z,4.80
2023-05-07T12:12:22.192Z,4.45
2023-05-07T12:14:45.191Z,4.25
2023-05-07T12:17:08.692Z,5.00
2023-05-07T12:19:31.880Z,4.72
2023-05-07T12:21:53.350Z,4.68
2023-05-07T12:24:16.186Z,4.88
2023-05-07T12:26:41.801Z,4.28
2023-05-07T12:29:04.045Z,4.80
2023-05-07T12:31:28.699Z,4.20
2023-05-07T12:33:50.558Z,4.70
2023-05-07T12:36:14.097Z,4.55
2023-05-07T12:38:38.026Z,4.30
2023-05-07T12:40:59.484Z,4.07
2023-05-07T12:43:30.630Z,4.22
2023-05-07T12:45:54.537Z,4.85
2023-05-07T12:48:16.196Z,4.22
2023-05-07T12:50:38.028Z,5.05
2023-05-07T12:53:00.002Z,4.40
2023-05-07T12:55:21.526Z,5.15
2023-05-07T12:57:49.035Z,5.20
2023-05-07T13:00:11.187Z,5.78
2023-05-07T13:02:39.007Z,5.25
2023-05-07T13:05:00.601Z,5.88
2023-05-07T13:07:26.198Z,5.35
2023-05-07T13:09:49.212Z,4.93
2023-05-07T13:12:10.693Z,5.30
2023-05-07T13:14:32.520Z,4.85
2023-05-07T13:16:53.964Z,4.68
2023-05-07T13:19:15.598Z,4.05
2023-05-07T13:21:37.041Z,4.70
2023-05-07T13:23:59.900Z,4.55
2023-05-07T13:26:26.605Z,3.90
2023-05-07T13:28:49.652Z,4.40
2023-05-07T13:31:11.371Z,4.38
2023-05-07T13:33:32.783Z,4.35
2023-05-07T13:35:54.418Z,4.38
2023-05-07T13:38:16.995Z,4.47
2023-05-07T13:40:38.647Z,4.78
2023-05-07T13:43:01.842Z,4.10
2023-05-07T13:45:26.726Z,4.07
2023-05-07T13:47:50.488Z,4.43
2023-05-07T13:50:12.698Z,4.38
2023-05-07T13:52:34.448Z,3.90
2023-05-07T13:54:57.521Z,4.05
2023-05-07T13:57:19.497Z,4.00
2023-05-07T13:59:42.170Z,3.60
2023-05-07T14:02:03.647Z,3.67
2023-05-07T14:04:25.159Z,3.90
2023-05-07T14:06:46.717Z,4.03
2023-05-07T14:09:08.297Z,3.60
2023-05-07T14:11:29.937Z,3.58
2023-05-07T14:13:51.516Z,4.55
2023-05-07T14:16:13.022Z,4.25
2023-05-07T14:18:35.466Z,3.78
2023-05-07T14:20:57.016Z,4.25
2023-05-07T14:23:20.404Z,4.10
2023-05-07T14:25:42.087Z,4.15
2023-05-07T14:28:03.542Z,3.83
2023-05-07T14:30:25.593Z,3.90
2023-05-07T14:32:47.284Z,4.25
2023-05-07T14:35:09.461Z,5.13
2023-05-07T14:37:31.173Z,5.88
2023-05-07T14:39:52.735Z,5.03
2023-05-07T14:42:14.172Z,6.25
2023-05-07T14:44:36.704Z,5.90
2023-05-07T14:47:02.353Z,5.30
2023-05-07T14:49:24.724Z,4.50
2023-05-07T14:51:47.408Z,4.75
2023-05-07T14:54:08.966Z,4.95
2023-05-07T14:56:30.453Z,4.63
2023-05-07T14:58:51.947Z,4.90
2023-05-07T15:01:13.484Z,5.00
2023-05-07T15:03:35.512Z,4.28
2023-05-07T15:05:57.094Z,4.65
2023-05-07T15:08:19.027Z,4.20
2023-05-07T15:10:43.371Z,4.97
2023-05-07T15:13:04.829Z,4.82
2023-05-07T15:15:26.323Z,4.70
2023-05-07T15:17:47.902Z,4.65
2023-05-07T15:20:09.702Z,4.65
2023-05-07T15:22:31.803Z,4.80
2023-05-07T15:24:53.313Z,4.88
2023-05-07T15:27:15.093Z,5.30
2023-05-07T15:29:36.561Z,5.15
2023-05-07T15:31:58.385Z,5.35
2023-05-07T15:34:19.930Z,4.88
2023-05-07T15:36:41.884Z,5.72
2023-05-07T15:39:04.440Z,5.05
2023-05-07T15:41:26.054Z,5.50
2023-05-07T15:43:50.687Z,4.65
2023-05-07T15:46:12.462Z,4.95
2023-05-07T15:48:33.933Z,5.25
2023-05-07T15:50:55.421Z,4.95
2023-05-07T15:53:16.939Z,5.00
2023-05-07T15:55:38.428Z,5.15
2023-05-07T15:58:00.535Z,5.75
2023-05-07T16:00:22.168Z,5.38
2023-05-07T16:02:43.674Z,5.72
2023-05-07T16:05:08.878Z,5.97
2023-05-07T16:07:30.378Z,5.97
2023-05-07T16:09:51.869Z,5.20
2023-05-07T16:12:13.290Z,5.57
2023-05-07T16:14:34.707Z,5.75
2023-05-07T16:16:57.095Z,5.85
2023-05-07T16:19:18.667Z,5.60
2023-05-07T16:21:40.361Z,5.80
2023-05-07T16:24:02.253Z,5.43
2023-05-07T16:26:23.710Z,5.75
2023-05-07T16:28:45.401Z,5.68
2023-05-07T16:31:09.787Z,5.38
2023-05-07T16:33:31.272Z,5.50
2023-05-07T16:35:53.396Z,5.70
2023-05-07T16:38:14.865Z,5.18
2023-05-07T16:40:39.429Z,5.75
2023-05-07T16:43:01.356Z,5.10
2023-05-07T16:45:23.414Z,5.40
2023-05-07T16:47:45.586Z,5.43
2023-05-07T16:50:07.525Z,5.97
2023-05-07T16:52:32.295Z,5.57
2023-05-07T16:54:58.244Z,6.00
2023-05-07T16:57:19.713Z,5.25
2023-05-07T16:59:41.198Z,5.45
2023-05-07T17:02:02.741Z,5.47
2023-05-07T17:04:24.223Z,5.80
2023-05-07T17:06:46.174Z,5.85
2023-05-07T17:09:07.766Z,6.22
2023-05-07T17:11:31.223Z,5.88
2023-05-07T17:13:52.832Z,5.57
2023-05-07T17:16:14.545Z,6.38
2023-05-07T17:18:36.202Z,5.88
2023-05-07T17:20:57.733Z,6.15
2023-05-07T17:23:19.340Z,6.57
2023-05-07T17:25:45.464Z,6.28
2023-05-07T17:28:06.980Z,6.28
2023-05-07T17:30:28.527Z,6.07
2023-05-07T17:32:50.026Z,5.72
2023-05-07T17:35:11.533Z,6.68
2023-05-07T17:37:32.977Z,6.18
2023-05-07T17:39:54.776Z,7.30
2023-05-07T17:42:16.387Z,6.32
2023-05-07T17:44:37.869Z,6.00
2023-05-07T17:46:59.506Z,6.20
2023-05-07T17:49:20.964Z,6.20
2023-05-07T17:51:53.376Z,6.05
2023-05-07T17:54:16.530Z,6.10
2023-05-07T17:56:38.966Z,5.47
2023-05-07T17:59:00.473Z,5.60
2023-05-07T18:01:22.092Z,5.75
2023-05-07T18:03:44.286Z,5.97
2023-05-07T18:06:07.422Z,5.45
2023-05-07T18:08:30.425Z,5.47
2023-05-07T18:10:52.094Z,5.60
2023-05-07T18:13:13.651Z,6.05
2023-05-07T18:15:35.197Z,5.65
2023-05-07T18:17:56.730Z,5.55
2023-05-07T18:20:18.479Z,5.53
2023-05-07T18:22:40.539Z,5.57
2023-05-07T18:25:02.032Z,4.90
2023-05-07T18:27:23.743Z,5.40
2023-05-07T18:29:45.547Z,5.20
2023-05-07T18:32:07.186Z,5.22
2023-05-07T18:34:28.688Z,4.90
2023-05-07T18:36:50.143Z,5.05
2023-05-07T18:39:11.864Z,5.20
2023-05-07T18:41:33.374Z,4.85
2023-05-07T18:43:54.822Z,4.68
2023-05-07T18:46:16.316Z,4.60
2023-05-07T18:48:37.848Z,4.93
2023-05-07T18:50:59.375Z,4.35
2023-05-07T18:53:21.033Z,4.57
2023-05-07T18:55:46.065Z,4.68
2023-05-07T18:58:07.572Z,4.57
2023-05-07T19:00:29.192Z,4.28
2023-05-07T19:02:51.536Z,4.18
2023-05-07T19:05:13.086Z,4.55
2023-05-07T19:07:34.628Z,4.28
2023-05-07T19:10:04.775Z,4.35
2023-05-07T19:12:27.295Z,4.90
2023-05-07T19:14:48.768Z,4.43
2023-05-07T19:17:10.457Z,4.80
2023-05-07T19:19:31.924Z,4.60
2023-05-07T19:21:54.061Z,4.13
2023-05-07T19:24:16.118Z,4.53
2023-05-07T19:26:38.827Z,4.88
2023-05-07T19:31:27.372Z,4.70
2023-05-07T19:33:49.548Z,4.80
2023-05-07T19:36:11.057Z,4.78
2023-05-07T19:38:32.527Z,5.30
2023-05-07T19:40:57.849Z,4.78
2023-05-07T19:43:19.726Z,5.03
2023-05-07T19:45:43.434Z,4.88
2023-05-07T19:48:05.130Z,4.97
2023-05-07T19:50:26.677Z,5.10
2023-05-07T19:52:48.443Z,5.60
2023-05-07T19:55:10.661Z,4.90
2023-05-07T19:57:32.226Z,4.60
2023-05-07T19:59:53.698Z,5.20
2023-05-07T20:02:15.569Z,5.50
2023-05-07T20:04:38.251Z,5.30
2023-05-07T20:06:59.848Z,5.03
2023-05-07T20:09:21.287Z,5.40
2023-05-07T20:11:42.753Z,5.53
2023-05-07T20:14:05.800Z,5.80
2023-05-07T20:16:27.335Z,5.87
2023-05-07T20:18:48.819Z,5.80
2023-05-07T20:21:10.287Z,5.60
2023-05-07T20:23:31.816Z,5.80
2023-05-07T20:25:53.428Z,5.97
2023-05-07T20:28:15.232Z,6.43
2023-05-07T20:30:36.707Z,6.70
2023-05-07T20:32:58.319Z,6.50
2023-05-07T20:35:19.842Z,5.90
2023-05-07T20:37:41.913Z,5.40
2023-05-07T20:40:04.627Z,6.23
2023-05-07T20:42:26.104Z,5.93
2023-05-07T20:44:48.150Z,5.40
2023-05-07T20:47:09.927Z,5.40
2023-05-07T20:49:31.417Z,5.90
2023-05-07T20:51:52.885Z,5.63
2023-05-07T20:54:14.661Z,5.50
2023-05-07T20:56:36.142Z,5.30
2023-05-07T20:58:57.558Z,5.40
2023-05-07T21:01:19.105Z,5.60
2023-05-07T21:03:40.587Z,6.07
2023-05-07T21:06:03.163Z,7.10
2023-05-07T21:08:24.666Z,6.50
2023-05-07T21:10:46.794Z,6.40
2023-05-07T21:13:08.281Z,6.67
2023-05-07T21:15:29.775Z,7.63
2023-05-07T21:17:51.287Z,7.47
2023-05-07T21:20:13.132Z,6.70
2023-05-07T21:22:35.206Z,7.20
2023-05-07T21:24:56.801Z,6.50
2023-05-07T21:27:18.289Z,6.70
2023-05-07T21:29:39.865Z,6.40
2023-05-07T21:32:03.517Z,7.00
2023-05-07T21:34:25.045Z,6.37
2023-05-07T21:36:46.563Z,6.23
2023-05-07T21:39:08.937Z,6.20
2023-05-07T21:41:30.601Z,6.60
2023-05-07T21:43:53.522Z,6.70
2023-05-07T21:46:15.219Z,5.73
2023-05-07T21:48:36.765Z,6.40
2023-05-07T21:51:03.002Z,6.40
2023-05-07T21:53:24.457Z,6.67
2023-05-07T21:55:45.935Z,6.60
2023-05-07T21:58:07.375Z,6.47
2023-05-07T22:00:29.529Z,6.83
2023-05-07T22:02:51.308Z,6.80
2023-05-07T22:05:12.889Z,7.27
2023-05-07T22:07:34.363Z,7.23
2023-05-07T22:09:55.913Z,7.60
2023-05-07T22:12:17.390Z,9.20
2023-05-07T22:14:38.866Z,10.50
2023-05-07T22:17:00.491Z,11.23
2023-05-07T22:19:22.057Z,6.93
2023-05-07T22:21:43.828Z,7.90
2023-05-07T22:24:07.219Z,8.50
2023-05-07T22:26:28.860Z,7.77
2023-05-07T22:28:50.307Z,7.50
2023-05-07T22:31:11.827Z,7.33
2023-05-07T22:33:33.294Z,7.10
2023-05-07T22:35:54.777Z,6.47
2023-05-07T22:38:16.294Z,7.17
2023-05-07T22:40:37.737Z,6.80
2023-05-07T22:42:59.161Z,7.10
2023-05-07T22:45:21.148Z,7.53
2023-05-07T22:47:42.725Z,7.50
2023-05-07T22:50:06.431Z,7.10
2023-05-07T22:52:27.975Z,7.60
2023-05-07T22:54:49.481Z,7.20
2023-05-07T22:57:11.247Z,6.87
2023-05-07T22:59:32.778Z,7.07
2023-05-07T23:01:54.495Z,6.83
2023-05-07T23:04:16.360Z,7.10
2023-05-07T23:06:38.444Z,7.83
2023-05-07T23:08:59.959Z,6.77
2023-05-07T23:11:22.392Z,7.33
2023-05-07T23:13:43.871Z,7.77
2023-05-07T23:16:05.585Z,7.47
2023-05-07T23:18:30.393Z,8.17
2023-05-07T23:20:51.823Z,7.40
2023-05-07T23:23:13.282Z,8.47
2023-05-07T23:25:34.722Z,8.07
2023-05-07T23:27:56.277Z,7.17
2023-05-07T23:30:17.900Z,7.47
2023-05-07T23:32:39.403Z,7.50
2023-05-07T23:35:00.955Z,7.50
2023-05-07T23:37:23.056Z,7.83
2023-05-07T23:39:44.803Z,8.43
2023-05-07T23:42:06.340Z,8.03
2023-05-07T23:44:27.807Z,7.57
2023-05-07T23:46:49.414Z,7.60
2023-05-07T23:49:11.008Z,7.50
2023-05-07T23:51:32.457Z,8.23
2023-05-07T23:53:54.043Z,7.43
2023-05-07T23:56:15.512Z,8.10
2023-05-07T23:58:36.966Z,7.37
